Terminal Aerodrome Forecast
Issued by NWS

Current Version | Previous Version | Text Only | Print | Product List | Glossary On
Versions: 1 2 3 4 5 6 7 8 9 10 11 12 13 14 15 16 17 18 19
000
FTUS41 KPBZ 290759 AAA
TAFDUJ
TAF AMD
KDUJ 290759Z 2908/3006 34004KT 1/4SM FG OVC002
     FM291200 01004KT 2SM BR BKN008
     FM291400 01005KT 5SM BR SCT040
     FM291500 01005KT P6SM SCT200=

USA.gov is the U.S. government's official web portal to all federal, state and local government web resources and services.